Franklin Grove, IL

9:29 PM CDT on September 28, 2016 (GMT -0500)
Lost Lake Ogle County, Illinois | | Change Station

Elev 761 ft 41.91 °N, 89.35 °W | Updated 13 seconds ago

Clear
Clear
53.2 °F
Feels Like 53.2 °F
N
1.0
Wind Variable Wind from North
Gusts 1.0 mph

Today
High -- | Low -- °F
--% Chance of Precip.
Yesterday
High -- | Low -- °F
Precip. -- in
Pressure 30.14 in
Visibility 10.0 miles
Clouds Clear
Dew Point 50 °F
Humidity 90%
Rainfall 0.04 in
Snow Depth Not available.
6:51 AM 6:43 PM
Waning Crescent, 3% visible
METAR KRPJ 290215Z AUTO 36008KT 10SM CLR 12/09 A3014 RMK AO2 T01170093
Pressure 30.14 in
Visibility 10.0 miles
Clouds Clear
Dew Point 50 °F
Humidity 90%
Rainfall 0.04 in
Snow Depth Not available.
6:51 AM 6:43 PM
Waning Crescent, 3% visible
METAR KRPJ 290215Z AUTO 36008KT 10SM CLR 12/09 A3014 RMK AO2 T01170093

10-Day Weather Forecast

Almanac

Astronomy

Sep. 28, 2016 Rise Set
Actual Time
Civil Twilight
Nautical Twilight
Astronomical Twilight
Moon
Length of Visible Light
Length of Day
Tomorrow will be .
, % of the Moon is Illuminated

Today's Extremes

State Highs State Lows

Community

WunderPhotos

Upload Photos

1,942,403 photos uploaded!

WunderBlog® & News

Nearby

Air Quality

  Air Quality AQ Index Pollutant
Not available.

Snow Depth

Station Depth Elevation

Earthquake Activity

City Distance Mag. Time & Date
Minimum magnitude displayed is 2.5.

Coastal Water Temperatures

Place Temperature

Stations

Nearby Weather Stations

Station Location Temp. Windchill Dew Point Humidity Wind Precip. Elev Updated Type
                   

Watches & Warnings

There are currently no watches in effect.